This is the latest recevied weather packets stored in our database for station/object M0XDC. If no packets are shown the sender has not sent any weather packets the latest 10 day(s).
| Time | Temp. | Humidity | Pressure | Rain* | Wind** | Luminosity | Snow |
|---|---|---|---|---|---|---|---|
| 1777162057 | 7.78° C | 74% | 1021.5 hPa | 0 mm | - | - | - |
| 1777160257 | 7.78° C | 69% | 1021.4 hPa | 0 mm | - | - | - |
| 1777158457 | 8.33° C | 68% | 1021.4 hPa | 0 mm | - | - | - |
| 1777156339 | 8.89° C | 58% | 1021.1 hPa | 0 mm | - | - | - |
| 1777153505 | 9.44° C | 45% | 1020.7 hPa | 0 mm | - | - | - |
| 1777152738 | 10° C | 47% | 1020.6 hPa | 0 mm | - | - | - |
| 1777148106 | 10.56° C | 44% | 1020 hPa | 0 mm | - | - | - |
| 1777146303 | 12.22° C | 42% | 1019.8 hPa | 0 mm | - | - | - |
| 1777145617 | 12.78° C | 38% | 1019.7 hPa | 0 mm | - | - | - |
| 1777142705 | 15.56° C | 35% | 1019.2 hPa | 0 mm | - | - | - |
| 1777140005 | 17.78° C | 32% | 1019.1 hPa | 0 mm | - | - | - |
| 1777129205 | 20.56° C | 19% | 1018.8 hPa | 0 mm | - | - | - |
| 1777128305 | 20.56° C | 18% | 1018.7 hPa | 0 mm | - | - | - |
| 1777125603 | 21.11° C | 23% | 1019 hPa | 0 mm | - | - | - |
| 1777124703 | 19.44° C | 25% | 1019.1 hPa | 0 mm | - | - | - |
| 1777122905 | 18.33° C | 27% | 1019.1 hPa | 0 mm | - | - | - |
| 1777115703 | 17.22° C | 29% | 1019.5 hPa | 0 mm | - | - | - |
| 1777114039 | 16.67° C | 34% | 1019.8 hPa | 0 mm | - | - | - |
| 1777107605 | 10° C | 69% | 1019.9 hPa | 0 mm | - | - | - |
| 1777105805 | 7.22° C | 90% | 1019.7 hPa | 0 mm | - | - | - |
| 1777099503 | 3.33° C | 96% | 1019.7 hPa | 0 mm | - | - | - |
* Rain latest hour (hover to see other rain measurements)
** Current wind speed in m/s (hover to see current wind gust speed)